createdAt,value
2022-12-25T00:01:56.601Z,72.18
2022-12-25T00:04:24.501Z,72.34
2022-12-25T00:06:52.253Z,71.83
2022-12-25T00:09:20.103Z,72.92
2022-12-25T00:11:48.096Z,73.45
2022-12-25T00:14:15.768Z,75.64
2022-12-25T00:16:43.389Z,75.43
2022-12-25T00:19:11.442Z,74.40
2022-12-25T00:21:39.047Z,73.53
2022-12-25T00:24:07.127Z,73.69
2022-12-25T00:26:35.086Z,74.64
2022-12-25T00:29:02.613Z,74.91
2022-12-25T00:31:30.332Z,74.71
2022-12-25T00:33:58.216Z,71.01
2022-12-25T00:36:25.856Z,72.10
2022-12-25T00:38:53.502Z,71.81
2022-12-25T00:41:42.115Z,72.65
2022-12-25T00:44:12.522Z,72.84
2022-12-25T00:46:41.811Z,72.66
2022-12-25T00:49:10.274Z,73.42
2022-12-25T00:51:38.459Z,72.43
2022-12-25T00:54:06.595Z,71.96
2022-12-25T00:56:34.956Z,73.33
2022-12-25T00:59:02.582Z,72.99
2022-12-25T01:01:30.719Z,73.00
2022-12-25T01:03:58.977Z,73.27
2022-12-25T01:06:26.794Z,71.95
2022-12-25T01:09:18.061Z,71.75
2022-12-25T01:11:46.102Z,72.24
2022-12-25T01:14:14.478Z,73.42
2022-12-25T01:16:42.125Z,72.97
2022-12-25T01:19:11.727Z,71.97
2022-12-25T01:21:39.637Z,71.59
2022-12-25T01:24:07.395Z,72.71
2022-12-25T01:26:34.951Z,71.73
2022-12-25T01:29:03.123Z,71.33
2022-12-25T01:31:30.764Z,72.72
2022-12-25T01:33:58.451Z,73.81
2022-12-25T01:36:26.836Z,73.44
2022-12-25T01:38:55.094Z,73.80
2022-12-25T01:41:24.483Z,73.01
2022-12-25T01:44:03.334Z,71.96
2022-12-25T01:46:31.968Z,71.38
2022-12-25T01:49:22.956Z,72.21
2022-12-25T01:51:58.450Z,71.49
2022-12-25T01:54:36.645Z,71.48
2022-12-25T01:57:08.831Z,71.40
2022-12-25T01:59:37.303Z,74.77
2022-12-25T02:02:05.587Z,75.26
2022-12-25T02:04:40.397Z,73.29
2022-12-25T02:07:16.646Z,71.99
2022-12-25T02:09:46.869Z,72.71
2022-12-25T02:12:30.959Z,69.96
2022-12-25T02:15:05.789Z,71.08
2022-12-25T02:17:39.851Z,73.18
2022-12-25T02:20:37.823Z,74.28
2022-12-25T02:23:49.637Z,73.39
2022-12-25T02:26:38.556Z,74.16
2022-12-25T02:29:30.721Z,74.59
2022-12-25T02:32:05.809Z,74.47
2022-12-25T02:34:45.282Z,74.51
2022-12-25T02:37:19.972Z,73.54
2022-12-25T02:39:59.412Z,74.15
2022-12-25T02:43:17.354Z,73.80
2022-12-25T02:46:15.752Z,74.18
2022-12-25T02:49:07.278Z,73.33
2022-12-25T02:51:58.890Z,73.28
2022-12-25T02:54:54.100Z,72.33
2022-12-25T02:57:44.973Z,73.06
2022-12-25T03:00:33.027Z,73.20
2022-12-25T03:03:22.008Z,71.98
2022-12-25T03:06:09.306Z,72.59
2022-12-25T03:08:44.110Z,72.31
2022-12-25T03:11:31.516Z,72.04
2022-12-25T03:14:23.327Z,72.61
2022-12-25T03:16:55.338Z,73.35
2022-12-25T03:20:04.444Z,73.31
2022-12-25T03:22:51.637Z,71.50
2022-12-25T03:25:38.677Z,71.67
2022-12-25T03:28:06.963Z,73.35
2022-12-25T03:31:13.989Z,75.18
2022-12-25T03:34:12.454Z,73.80
2022-12-25T03:37:32.970Z,73.05
2022-12-25T03:40:45.360Z,74.25
2022-12-25T03:57:28.373Z,73.99
2022-12-25T04:00:15.275Z,76.10
2022-12-25T04:03:02.018Z,76.93
2022-12-25T04:05:48.593Z,74.67
2022-12-25T04:08:35.401Z,74.17
2022-12-25T04:11:22.078Z,73.29
2022-12-25T04:14:08.481Z,71.78
2022-12-25T04:16:54.678Z,73.53
2022-12-25T04:19:41.147Z,73.88
2022-12-25T04:22:27.270Z,72.71
2022-12-25T04:25:13.865Z,70.87
2022-12-25T04:27:59.974Z,70.28
2022-12-25T04:30:46.508Z,71.93
2022-12-25T04:33:33.004Z,73.83
2022-12-25T04:36:09.791Z,73.89
2022-12-25T04:38:38.168Z,72.84
2022-12-25T04:41:08.446Z,73.39
2022-12-25T04:43:36.017Z,75.72
2022-12-25T04:46:05.128Z,76.15
2022-12-25T04:48:35.684Z,73.38
2022-12-25T04:51:18.028Z,72.65
2022-12-25T04:53:47.263Z,73.15
2022-12-25T04:56:15.317Z,75.92
2022-12-25T04:58:43.330Z,75.07
2022-12-25T05:01:12.333Z,73.21
2022-12-25T05:03:40.181Z,72.96
2022-12-25T05:06:08.127Z,73.83
2022-12-25T05:08:37.035Z,73.42
2022-12-25T05:11:09.848Z,73.59
2022-12-25T05:13:38.847Z,72.98
2022-12-25T05:16:16.519Z,73.33
2022-12-25T05:18:44.607Z,73.16
2022-12-25T05:21:12.744Z,73.19
2022-12-25T05:23:48.532Z,72.15
2022-12-25T05:26:19.617Z,72.39
2022-12-25T05:28:47.694Z,72.56
2022-12-25T05:31:15.402Z,72.34
2022-12-25T05:33:43.427Z,75.95
2022-12-25T05:36:12.942Z,75.23
2022-12-25T05:38:40.525Z,75.29
2022-12-25T05:41:08.458Z,76.05
2022-12-25T05:43:35.992Z,75.73
2022-12-25T05:46:08.596Z,76.17
2022-12-25T05:48:37.968Z,78.77
2022-12-25T05:51:07.730Z,78.60
2022-12-25T05:53:35.525Z,79.33
2022-12-25T05:56:05.821Z,77.12
2022-12-25T05:58:35.301Z,74.64
2022-12-25T06:01:03.277Z,75.37
2022-12-25T06:03:31.579Z,75.77
2022-12-25T06:05:59.220Z,76.46
2022-12-25T06:08:26.819Z,76.72
2022-12-25T06:10:54.701Z,75.32
2022-12-25T06:13:22.267Z,74.30
2022-12-25T06:15:49.899Z,73.57
2022-12-25T06:18:17.771Z,73.06
2022-12-25T06:20:45.443Z,74.19
2022-12-25T06:23:13.151Z,73.30
2022-12-25T06:25:41.098Z,73.11
2022-12-25T06:28:08.988Z,73.73
2022-12-25T06:30:36.552Z,74.00
2022-12-25T06:33:04.449Z,73.61
2022-12-25T06:35:32.002Z,74.30
2022-12-25T06:38:00.481Z,73.64
2022-12-25T06:40:28.409Z,75.00
2022-12-25T06:42:55.922Z,75.01
2022-12-25T06:45:23.564Z,73.13
2022-12-25T06:47:51.713Z,72.33
2022-12-25T06:50:19.334Z,72.72
2022-12-25T06:52:46.908Z,72.58
2022-12-25T06:55:14.782Z,73.21
2022-12-25T06:57:42.385Z,73.39
2022-12-25T07:00:10.418Z,73.03
2022-12-25T07:02:38.837Z,72.57
2022-12-25T07:05:06.781Z,73.20
2022-12-25T07:07:34.499Z,73.55
2022-12-25T07:10:02.373Z,74.47
2022-12-25T07:12:30.068Z,74.23
2022-12-25T07:15:02.400Z,74.58
2022-12-25T07:17:30.341Z,73.92
2022-12-25T07:19:57.908Z,70.66
2022-12-25T07:22:25.630Z,70.24
2022-12-25T07:24:53.450Z,68.12
2022-12-25T07:27:21.050Z,67.97
2022-12-25T07:29:49.099Z,67.70
2022-12-25T07:32:17.084Z,67.70
2022-12-25T07:34:44.971Z,69.42
2022-12-25T07:37:13.135Z,68.87
2022-12-25T07:39:41.075Z,66.40
2022-12-25T07:42:08.846Z,67.36
2022-12-25T07:44:36.385Z,67.97
2022-12-25T07:47:04.321Z,70.16
2022-12-25T07:49:32.031Z,69.41
2022-12-25T07:51:59.583Z,69.52
2022-12-25T07:54:27.398Z,70.78
2022-12-25T07:56:54.956Z,69.43
2022-12-25T07:59:22.526Z,68.14
2022-12-25T08:01:51.059Z,67.18
2022-12-25T08:04:19.257Z,67.21
2022-12-25T08:06:46.891Z,67.07
2022-12-25T08:09:14.494Z,66.14
2022-12-25T08:11:46.860Z,66.16
2022-12-25T08:14:14.854Z,65.30
2022-12-25T08:16:42.777Z,67.59
2022-12-25T08:19:11.264Z,68.19
2022-12-25T08:21:38.989Z,69.00
2022-12-25T08:24:07.074Z,69.10
2022-12-25T08:26:34.695Z,71.20
2022-12-25T08:29:02.429Z,68.91
2022-12-25T08:31:31.368Z,68.31
2022-12-25T08:33:59.078Z,68.90
2022-12-25T08:36:27.188Z,70.77
2022-12-25T08:39:02.174Z,67.37
2022-12-25T08:41:31.651Z,66.78
2022-12-25T08:43:59.507Z,66.97
2022-12-25T08:46:27.063Z,69.44
2022-12-25T08:48:56.733Z,67.65
2022-12-25T08:51:26.206Z,69.17
2022-12-25T08:53:59.053Z,67.59
2022-12-25T08:56:27.096Z,67.75
2022-12-25T08:58:54.769Z,67.15
2022-12-25T09:01:22.409Z,68.38
2022-12-25T09:03:50.559Z,68.52
2022-12-25T09:06:18.273Z,69.59
2022-12-25T09:08:49.050Z,67.66
2022-12-25T09:11:19.950Z,65.19
2022-12-25T09:13:48.974Z,66.58
2022-12-25T09:16:21.023Z,66.33
2022-12-25T09:18:48.936Z,65.61
2022-12-25T09:21:17.485Z,64.69
2022-12-25T09:23:45.369Z,64.82
2022-12-25T09:26:15.251Z,64.79
2022-12-25T09:28:50.305Z,63.80
2022-12-25T09:31:19.134Z,62.73
2022-12-25T09:33:47.468Z,66.35
2022-12-25T09:36:15.227Z,64.40
2022-12-25T09:38:43.047Z,65.20
2022-12-25T09:41:32.114Z,66.93
2022-12-25T09:44:12.562Z,68.71
2022-12-25T09:47:08.450Z,67.65
2022-12-25T09:50:00.385Z,69.04
2022-12-25T09:52:46.303Z,68.42
2022-12-25T09:55:20.459Z,69.03
2022-12-25T09:57:58.721Z,68.16
2022-12-25T10:00:36.059Z,69.78
2022-12-25T10:03:10.599Z,72.78
2022-12-25T10:05:44.075Z,69.76
2022-12-25T10:08:41.004Z,69.78
2022-12-25T10:11:26.518Z,70.51
2022-12-25T10:14:07.330Z,70.97
2022-12-25T10:16:57.119Z,73.63
2022-12-25T10:19:34.066Z,73.58
2022-12-25T10:22:09.434Z,78.45
2022-12-25T10:24:43.829Z,77.21
2022-12-25T10:27:32.145Z,77.91
2022-12-25T10:30:01.845Z,78.36
2022-12-25T10:32:30.042Z,75.67
2022-12-25T10:34:57.613Z,76.61
2022-12-25T10:37:25.475Z,76.48
2022-12-25T10:39:53.175Z,77.56
2022-12-25T10:42:34.714Z,78.69
2022-12-25T10:45:09.134Z,78.33
2022-12-25T10:47:42.659Z,78.48
2022-12-25T10:50:24.823Z,78.32
2022-12-25T10:53:00.910Z,79.16
2022-12-25T10:55:29.862Z,80.79
2022-12-25T10:57:59.165Z,79.93
2022-12-25T11:00:32.215Z,79.74
2022-12-25T11:03:00.807Z,80.67
2022-12-25T11:05:31.319Z,81.34
2022-12-25T11:08:01.262Z,80.32
2022-12-25T11:10:34.208Z,83.96
2022-12-25T11:13:02.917Z,85.57
2022-12-25T11:15:44.584Z,85.77
2022-12-25T11:18:35.597Z,83.69
2022-12-25T11:21:16.515Z,84.16
2022-12-25T11:23:50.218Z,81.99
2022-12-25T11:26:18.705Z,83.34
2022-12-25T11:28:48.822Z,82.70
2022-12-25T11:31:19.728Z,83.53
2022-12-25T11:34:05.546Z,81.77
2022-12-25T11:36:43.746Z,84.06
2022-12-25T11:39:21.836Z,82.43
2022-12-25T11:41:53.891Z,82.85
2022-12-25T11:44:36.713Z,83.49
2022-12-25T11:47:15.085Z,81.61
2022-12-25T11:49:51.512Z,80.99
2022-12-25T11:52:22.718Z,81.35
2022-12-25T11:55:02.923Z,82.01
2022-12-25T11:57:33.022Z,81.92
2022-12-25T12:00:09.506Z,82.34
2022-12-25T12:02:48.881Z,84.94
2022-12-25T12:05:21.606Z,82.92
2022-12-25T12:07:55.796Z,83.40
2022-12-25T12:10:32.858Z,83.40
2022-12-25T12:13:23.691Z,82.94
2022-12-25T12:15:51.698Z,83.96
2022-12-25T12:18:23.433Z,83.85
2022-12-25T12:21:03.319Z,84.01
2022-12-25T12:23:54.408Z,84.19
2022-12-25T12:26:24.869Z,85.01
2022-12-25T12:28:57.298Z,85.11
2022-12-25T12:31:36.419Z,85.41
2022-12-25T12:34:05.127Z,85.36
2022-12-25T12:36:36.960Z,84.95
2022-12-25T12:39:06.073Z,86.98
2022-12-25T12:41:52.860Z,87.00
2022-12-25T12:44:25.441Z,85.73
2022-12-25T12:46:55.949Z,85.35
2022-12-25T12:49:32.939Z,86.19
2022-12-25T12:52:24.836Z,86.16
2022-12-25T12:54:59.899Z,86.71
2022-12-25T12:57:34.483Z,86.10
2022-12-25T13:00:09.858Z,86.25
2022-12-25T13:02:50.067Z,85.74
2022-12-25T13:05:42.169Z,86.51
2022-12-25T13:08:33.400Z,85.39
2022-12-25T13:11:20.378Z,85.23
2022-12-25T13:13:50.876Z,84.83
2022-12-25T13:16:24.558Z,85.58
2022-12-25T13:18:53.985Z,85.71
2022-12-25T13:21:28.408Z,85.81
2022-12-25T13:23:58.589Z,85.72
2022-12-25T13:26:27.542Z,86.41
2022-12-25T13:28:56.262Z,86.02
2022-12-25T13:31:29.283Z,86.17
2022-12-25T13:34:05.696Z,84.82
2022-12-25T13:36:38.450Z,85.10
2022-12-25T13:39:16.765Z,85.01
2022-12-25T13:42:06.252Z,85.47
2022-12-25T13:44:40.127Z,85.04
2022-12-25T13:47:19.079Z,85.57
2022-12-25T13:49:48.435Z,84.89
2022-12-25T13:52:21.634Z,84.50
2022-12-25T13:55:03.928Z,84.48
2022-12-25T13:57:36.869Z,84.03
2022-12-25T14:00:07.183Z,84.05
2022-12-25T14:02:38.290Z,83.93
2022-12-25T14:05:22.840Z,83.63
2022-12-25T14:07:55.605Z,83.02
2022-12-25T14:10:26.134Z,84.41
2022-12-25T14:12:58.359Z,83.56
2022-12-25T14:15:30.430Z,83.00
2022-12-25T14:17:59.443Z,84.20
2022-12-25T14:20:30.155Z,83.32
2022-12-25T14:23:00.777Z,83.14
2022-12-25T14:25:43.093Z,82.87
2022-12-25T14:28:20.646Z,82.69
2022-12-25T14:30:48.560Z,81.93
2022-12-25T14:33:21.165Z,81.78
2022-12-25T14:35:50.123Z,82.27
2022-12-25T14:38:28.191Z,81.39
2022-12-25T14:41:05.110Z,82.21
2022-12-25T14:43:34.658Z,81.88
2022-12-25T14:46:06.520Z,81.07
2022-12-25T14:48:34.970Z,79.59
2022-12-25T14:51:07.503Z,79.21
2022-12-25T14:53:38.082Z,79.15
2022-12-25T14:56:08.453Z,78.49
2022-12-25T14:58:42.895Z,79.43
2022-12-25T15:01:33.685Z,80.05
2022-12-25T15:04:10.483Z,79.62
2022-12-25T15:06:56.628Z,79.82
2022-12-25T15:09:24.545Z,79.68
2022-12-25T15:11:55.544Z,79.87
2022-12-25T15:14:24.455Z,78.35
2022-12-25T15:16:55.659Z,77.31
2022-12-25T15:19:34.802Z,77.09
2022-12-25T15:22:05.616Z,79.06
2022-12-25T15:24:33.329Z,79.47
2022-12-25T15:27:01.619Z,79.07
2022-12-25T15:30:07.953Z,78.52
2022-12-25T15:32:22.571Z,78.75
2022-12-25T15:34:51.325Z,78.58
2022-12-25T15:37:19.006Z,77.85
2022-12-25T15:39:46.659Z,77.27
2022-12-25T15:42:18.017Z,76.10
2022-12-25T15:44:46.499Z,76.18
2022-12-25T15:47:16.800Z,74.65
2022-12-25T15:49:44.393Z,74.26
2022-12-25T15:52:14.227Z,75.97
2022-12-25T15:54:42.576Z,76.47
2022-12-25T15:57:18.060Z,75.65
2022-12-25T15:59:46.231Z,75.75
2022-12-25T16:02:19.492Z,75.86
2022-12-25T16:04:47.697Z,76.57
2022-12-25T16:07:20.612Z,76.48
2022-12-25T16:09:48.660Z,75.63
2022-12-25T16:12:16.393Z,75.56
2022-12-25T16:14:43.965Z,76.79
2022-12-25T16:17:14.904Z,74.71
2022-12-25T16:19:44.706Z,73.76
2022-12-25T16:22:14.398Z,74.04
2022-12-25T16:24:42.262Z,74.43
2022-12-25T16:27:09.821Z,75.50
2022-12-25T16:29:37.761Z,76.22
2022-12-25T16:32:05.299Z,76.72
2022-12-25T16:34:32.817Z,75.81
2022-12-25T16:37:00.659Z,75.12
2022-12-25T16:39:28.914Z,76.16
2022-12-25T16:41:56.821Z,75.62
2022-12-25T16:44:24.739Z,75.71
2022-12-25T16:46:52.237Z,75.76
2022-12-25T16:49:19.884Z,75.71
2022-12-25T16:51:47.705Z,75.90
2022-12-25T16:54:15.323Z,75.77
2022-12-25T16:56:42.903Z,76.33
2022-12-25T16:59:10.956Z,76.58
2022-12-25T17:01:43.189Z,76.19
2022-12-25T17:04:14.212Z,77.00
2022-12-25T17:06:41.896Z,78.24
2022-12-25T17:09:10.721Z,77.42
2022-12-25T17:11:38.704Z,78.04
2022-12-25T17:14:06.763Z,79.96
2022-12-25T17:16:36.564Z,78.75
2022-12-25T17:19:09.660Z,77.89
2022-12-25T17:21:38.489Z,79.06
2022-12-25T17:24:07.226Z,76.96
2022-12-25T17:26:34.853Z,76.14
2022-12-25T17:29:02.499Z,76.43
2022-12-25T17:31:30.636Z,76.79
2022-12-25T17:34:00.744Z,77.17
2022-12-25T17:36:28.788Z,77.43
2022-12-25T17:38:59.701Z,77.73
2022-12-25T17:41:27.589Z,77.87
2022-12-25T17:43:55.106Z,78.01
2022-12-25T17:46:28.368Z,78.47
2022-12-25T17:48:57.780Z,78.21
2022-12-25T17:51:27.842Z,78.48
2022-12-25T17:53:58.911Z,79.51
2022-12-25T17:56:26.683Z,79.33
2022-12-25T17:58:56.879Z,81.41
2022-12-25T18:01:26.182Z,80.07
2022-12-25T18:03:55.102Z,79.17
2022-12-25T18:06:25.263Z,78.55
2022-12-25T18:08:54.445Z,78.71
2022-12-25T18:11:33.096Z,78.41
2022-12-25T18:14:04.320Z,80.25
2022-12-25T18:16:33.729Z,81.11
2022-12-25T18:19:01.472Z,79.77
2022-12-25T18:21:29.500Z,79.35
2022-12-25T18:23:57.852Z,78.10
2022-12-25T18:26:26.078Z,78.29
2022-12-25T18:28:53.964Z,78.37
2022-12-25T18:31:24.282Z,79.69
2022-12-25T18:33:52.657Z,80.27
2022-12-25T18:36:23.372Z,79.89
2022-12-25T18:38:53.679Z,79.46
2022-12-25T18:41:22.558Z,78.20
2022-12-25T18:43:53.122Z,77.89
2022-12-25T18:46:25.576Z,77.79
2022-12-25T18:48:56.588Z,79.55
2022-12-25T18:51:26.653Z,79.29
2022-12-25T18:53:57.377Z,78.43
2022-12-25T18:56:25.230Z,78.11
2022-12-25T18:58:52.760Z,77.86
2022-12-25T19:01:23.704Z,78.48
2022-12-25T19:03:53.858Z,78.33
2022-12-25T19:06:26.934Z,78.48
2022-12-25T19:08:56.354Z,78.45
2022-12-25T19:11:23.969Z,78.23
2022-12-25T19:13:51.636Z,78.02
2022-12-25T19:16:19.571Z,78.27
2022-12-25T19:18:47.205Z,79.21
2022-12-25T19:21:16.014Z,79.82
2022-12-25T19:23:44.152Z,80.79
2022-12-25T19:26:12.207Z,83.35
2022-12-25T19:28:39.997Z,85.02
2022-12-25T19:31:09.142Z,84.21
2022-12-25T19:33:41.795Z,84.45
2022-12-25T19:36:13.104Z,84.95
2022-12-25T19:38:41.279Z,84.08
2022-12-25T19:41:12.353Z,83.00
2022-12-25T19:43:41.762Z,84.01
2022-12-25T19:46:22.404Z,83.16
2022-12-25T19:48:50.325Z,82.58
2022-12-25T19:51:21.818Z,82.37
2022-12-25T19:53:50.021Z,82.21
2022-12-25T19:56:18.171Z,82.47
2022-12-25T19:58:47.192Z,82.88
2022-12-25T20:01:18.923Z,82.62
2022-12-25T20:03:48.490Z,82.95
2022-12-25T20:06:26.131Z,83.88
2022-12-25T20:08:57.007Z,83.76
2022-12-25T20:11:28.287Z,84.01
2022-12-25T20:13:57.103Z,83.88
2022-12-25T20:16:25.663Z,83.19
2022-12-25T20:18:53.578Z,84.03
2022-12-25T20:21:23.144Z,84.03
2022-12-25T20:23:52.476Z,85.43
2022-12-25T20:26:24.675Z,85.70
2022-12-25T20:28:52.855Z,85.63
2022-12-25T20:31:30.681Z,85.48
2022-12-25T20:34:01.449Z,86.06
2022-12-25T20:36:36.126Z,86.40
2022-12-25T20:39:08.642Z,85.24
2022-12-25T20:41:36.804Z,87.99
2022-12-25T20:44:06.461Z,87.42
2022-12-25T20:46:34.771Z,86.47
2022-12-25T20:49:03.011Z,86.00
2022-12-25T20:51:30.891Z,87.52
2022-12-25T20:53:58.829Z,85.99
2022-12-25T20:56:29.000Z,85.78
2022-12-25T20:58:59.049Z,88.43
2022-12-25T21:01:29.562Z,89.06
2022-12-25T21:03:58.489Z,91.60
2022-12-25T21:06:26.251Z,88.75
2022-12-25T21:08:54.227Z,88.10
2022-12-25T21:11:22.058Z,88.12
2022-12-25T21:13:50.246Z,88.39
2022-12-25T21:16:22.358Z,88.48
2022-12-25T21:18:53.136Z,86.68
2022-12-25T21:21:21.821Z,86.49
2022-12-25T21:23:49.407Z,86.62
2022-12-25T21:26:25.647Z,86.34
2022-12-25T21:28:57.269Z,86.72
2022-12-25T21:31:25.216Z,86.02
2022-12-25T21:33:55.104Z,86.23
2022-12-25T21:36:27.397Z,85.92
2022-12-25T21:39:05.482Z,85.49
2022-12-25T21:41:34.803Z,86.19
2022-12-25T21:44:02.647Z,85.92
2022-12-25T21:46:30.356Z,87.11
2022-12-25T21:48:59.133Z,86.53
2022-12-25T21:51:48.376Z,87.12
2022-12-25T21:54:17.508Z,86.20
2022-12-25T21:56:47.237Z,85.51
2022-12-25T21:59:17.982Z,85.92
2022-12-25T22:01:46.984Z,86.55
2022-12-25T22:04:16.382Z,87.90
2022-12-25T22:07:04.302Z,89.94
2022-12-25T22:09:32.315Z,87.91
2022-12-25T22:12:18.747Z,90.31
2022-12-25T22:14:55.824Z,90.61
2022-12-25T22:17:46.229Z,88.64
2022-12-25T22:20:22.373Z,87.60
2022-12-25T22:22:50.117Z,88.97
2022-12-25T22:25:19.059Z,90.80
2022-12-25T22:27:47.836Z,88.79
2022-12-25T22:30:21.232Z,89.92
2022-12-25T22:32:49.794Z,89.79
2022-12-25T22:35:18.103Z,88.72
2022-12-25T22:37:46.501Z,87.98
2022-12-25T22:40:16.694Z,87.79
2022-12-25T22:42:44.456Z,88.24
2022-12-25T22:45:16.447Z,88.98
2022-12-25T22:47:44.255Z,88.18
2022-12-25T22:50:14.736Z,86.24
2022-12-25T22:52:43.134Z,85.47
2022-12-25T22:55:11.177Z,88.39
2022-12-25T22:57:38.768Z,86.70
2022-12-25T23:00:08.908Z,85.77
2022-12-25T23:02:36.920Z,85.73
2022-12-25T23:05:04.964Z,84.92
2022-12-25T23:07:32.511Z,85.15
2022-12-25T23:10:00.543Z,85.12
2022-12-25T23:12:46.892Z,85.93
2022-12-25T23:15:14.761Z,86.02
2022-12-25T23:18:01.389Z,85.76
2022-12-25T23:20:47.996Z,85.99
2022-12-25T23:23:35.471Z,86.20
2022-12-25T23:26:09.803Z,88.11
2022-12-25T23:28:59.376Z,86.99
2022-12-25T23:31:35.361Z,87.08
2022-12-25T23:34:05.244Z,88.68
2022-12-25T23:36:34.133Z,91.40
2022-12-25T23:39:08.996Z,90.48
2022-12-25T23:41:39.690Z,89.60
2022-12-25T23:44:07.766Z,88.20
2022-12-25T23:46:35.779Z,88.21
2022-12-25T23:49:04.007Z,88.59
2022-12-25T23:51:31.835Z,88.27
2022-12-25T23:53:59.451Z,89.29
2022-12-25T23:56:27.345Z,89.57
2022-12-25T23:58:55.018Z,90.47
